Time;durP1;ratioP1;P1;durP2;ratioP2;P2;SDS_P1;SDS_P2;PMS_P1;PMS_P2;Temp;Humidity;BMP_temperature;BMP_pressure;BME280_temperature;BME280_humidity;BME280_pressure;Samples;Min_cycle;Max_cycle;Signal;HPM_P1;HPM_P2
2021/12/28 00:00:05;;;;;;;;;34.50;30.50;;;;;20.13;41.67;100589.95;109300;1280;20357;-80
2021/12/28 00:02:51;;;;;;;;;41.00;37.33;;;;;20.08;41.66;100578.11;109193;1280;22744;-80
2021/12/28 00:05:16;;;;;;;;;37.00;35.00;;;;;20.11;41.69;100581.84;109282;1280;19534;-79
2021/12/28 00:07:42;;;;;;;;;44.00;37.00;;;;;20.12;41.61;100577.52;109276;1280;20122;-79
2021/12/28 00:10:08;;;;;;;;;40.00;33.50;;;;;20.12;41.55;100576.67;109233;1279;24851;-80
2021/12/28 00:12:37;;;;;;;;;38.00;37.00;;;;;20.13;41.63;100576.70;109269;1279;25165;-80
2021/12/28 00:15:07;;;;;;;;;37.00;33.00;;;;;20.14;41.63;100577.46;109235;1280;21850;-79
2021/12/28 00:20:17;;;;;;;;;39.33;34.00;;;;;20.13;41.41;100564.52;108241;1280;1272723;-79
2021/12/28 00:22:43;;;;;;;;;36.00;34.00;;;;;20.10;41.50;100560.37;109266;1280;22232;-79
2021/12/28 00:25:11;;;;;;;;;40.50;36.00;;;;;20.10;41.31;100564.17;109277;1279;22288;-78
2021/12/28 00:27:37;;;;;;;;;40.67;36.33;;;;;20.11;41.39;100565.65;109264;1280;20360;-79
2021/12/28 00:30:03;;;;;;;;;34.50;33.50;;;;;20.13;41.43;100560.98;109289;1280;20112;-80
2021/12/28 00:32:29;;;;;;;;;35.33;32.00;;;;;20.13;41.46;100557.48;109261;1280;19478;-79
2021/12/28 00:34:55;;;;;;;;;41.50;34.50;;;;;20.11;41.31;100555.11;109268;1280;19471;-80
2021/12/28 00:37:20;;;;;;;;;37.50;34.00;;;;;20.09;41.43;100552.31;109270;1280;21840;-80
2021/12/28 00:39:47;;;;;;;;;31.33;30.00;;;;;20.03;41.28;100540.31;109254;1280;23877;-79
2021/12/28 00:42:14;;;;;;;;;45.50;37.50;;;;;20.04;41.31;100540.20;109260;1280;24008;-80
2021/12/28 00:44:40;;;;;;;;;35.00;30.00;;;;;20.05;41.33;100540.60;109297;1280;21843;-80
2021/12/28 00:47:05;;;;;;;;;40.00;32.50;;;;;20.06;41.24;100537.33;109254;1280;19177;-79
2021/12/28 00:49:31;;;;;;;;;36.00;33.50;;;;;20.07;41.21;100536.38;109250;1280;20097;-79
2021/12/28 00:51:57;;;;;;;;;38.00;31.50;;;;;20.07;41.01;100536.00;109297;1280;22342;-80
2021/12/28 00:54:23;;;;;;;;;36.00;32.67;;;;;20.06;40.99;100527.27;109298;1280;19430;-80
2021/12/28 00:56:49;;;;;;;;;40.00;36.00;;;;;20.04;41.06;100525.20;109298;1280;19619;-80
2021/12/28 00:59:15;;;;;;;;;35.50;33.00;;;;;20.04;41.06;100524.59;109284;1279;22888;-80
2021/12/28 01:01:41;;;;;;;;;42.00;32.00;;;;;20.06;41.10;100522.52;109288;1279;22874;-79
2021/12/28 01:04:07;;;;;;;;;37.00;34.00;;;;;20.05;41.01;100515.45;109265;1279;22708;-80
2021/12/28 01:06:33;;;;;;;;;30.00;25.50;;;;;20.03;40.74;100510.21;109382;1279;20833;-80
2021/12/28 01:08:58;;;;;;;;;33.00;31.00;;;;;20.01;41.01;100511.86;109325;1280;19077;-79
2021/12/28 01:11:24;;;;;;;;;37.00;33.00;;;;;19.99;40.82;100507.90;109221;1280;19699;-81
2021/12/28 01:13:50;;;;;;;;;36.00;34.00;;;;;19.98;40.96;100503.06;109266;1280;20247;-81
2021/12/28 01:16:16;;;;;;;;;36.00;33.00;;;;;19.98;40.70;100497.11;109260;1280;19689;-81
2021/12/28 01:18:42;;;;;;;;;39.50;34.00;;;;;19.96;40.68;100493.03;109275;1280;23417;-80
2021/12/28 01:21:08;;;;;;;;;41.00;35.00;;;;;19.95;40.62;100491.85;109309;1280;23428;-80
2021/12/28 01:23:33;;;;;;;;;42.00;32.50;;;;;19.96;40.84;100487.18;109267;1280;20689;-80
2021/12/28 01:26:00;;;;;;;;;36.67;33.33;;;;;19.96;40.64;100487.36;109294;1279;23730;-80
2021/12/28 01:28:26;;;;;;;;;32.00;29.00;;;;;19.94;40.59;100485.61;109271;1279;23180;-79
2021/12/28 01:30:51;;;;;;;;;38.50;34.00;;;;;19.93;40.69;100491.70;109294;1279;21460;-81
2021/12/28 01:33:17;;;;;;;;;38.00;35.50;;;;;19.95;40.62;100487.46;109305;1280;22021;-80
2021/12/28 01:35:43;;;;;;;;;39.50;32.50;;;;;19.96;40.54;100485.34;109316;1280;20166;-80
2021/12/28 01:38:09;;;;;;;;;33.00;30.00;;;;;19.98;40.38;100483.38;109292;1280;19165;-80
2021/12/28 01:40:35;;;;;;;;;36.00;34.00;;;;;19.97;40.47;100485.10;109293;1279;21056;-80
2021/12/28 01:43:01;;;;;;;;;35.50;29.50;;;;;19.99;40.62;100474.23;109293;1280;20083;-81
2021/12/28 01:45:26;;;;;;;;;33.00;30.00;;;;;19.98;40.38;100469.74;109310;1280;19219;-80
2021/12/28 01:47:52;;;;;;;;;31.00;29.00;;;;;19.96;40.45;100465.09;109261;1279;22393;-79
2021/12/28 01:50:18;;;;;;;;;37.00;33.50;;;;;19.98;40.34;100456.16;109260;1279;21669;-80
2021/12/28 01:52:44;;;;;;;;;35.00;25.00;;;;;19.96;40.32;100456.30;109317;1280;19133;-80
2021/12/28 01:55:10;;;;;;;;;33.00;29.00;;;;;19.98;40.42;100449.30;109289;1280;19429;-80
2021/12/28 01:57:36;;;;;;;;;34.50;30.00;;;;;19.99;40.37;100447.34;109267;1280;20684;-80
2021/12/28 02:00:01;;;;;;;;;37.00;33.00;;;;;19.99;40.25;100441.68;109354;1279;19170;-81
2021/12/28 02:02:27;;;;;;;;;34.50;31.50;;;;;20.00;40.35;100439.40;109303;1279;22868;-80
2021/12/28 02:08:09;;;;;;;;;36.00;32.00;;;;;20.01;40.13;100438.58;109049;1272;23664;-86
2021/12/28 02:11:16;;;;;;;;;36.00;28.00;;;;;20.01;40.25;100432.92;108871;1279;22209;-86
2021/12/28 02:13:51;;;;;;;;;36.67;29.67;;;;;20.03;40.25;100435.08;108839;1277;21436;-86
2021/12/28 02:16:17;;;;;;;;;36.50;30.00;;;;;20.03;40.29;100434.40;108853;1278;22203;-86
2021/12/28 02:18:43;;;;;;;;;32.00;30.00;;;;;20.03;40.16;100436.88;108887;1279;19709;-86
2021/12/28 02:21:10;;;;;;;;;35.67;29.33;;;;;20.02;40.20;100438.63;108828;1279;20336;-86
2021/12/28 02:23:36;;;;;;;;;38.50;31.00;;;;;20.02;40.03;100440.80;108871;1279;22621;-87
2021/12/28 02:26:03;;;;;;;;;30.67;28.33;;;;;20.03;40.10;100442.95;108883;1279;20019;-87
2021/12/28 02:28:30;;;;;;;;;35.00;29.33;;;;;20.03;40.24;100442.08;108893;1279;21129;-86
2021/12/28 02:30:57;;;;;;;;;36.33;31.00;;;;;20.01;40.34;100435.13;108872;1277;23721;-86
2021/12/28 02:33:23;;;;;;;;;31.50;29.00;;;;;20.00;40.28;100429.46;108900;1278;20370;-86
2021/12/28 02:35:51;;;;;;;;;33.67;30.33;;;;;19.98;40.17;100431.34;108919;1279;21056;-86
2021/12/28 02:38:21;;;;;;;;;34.00;27.00;;;;;19.95;40.32;100429.33;108845;1279;19377;-86
2021/12/28 02:40:47;;;;;;;;;30.00;26.50;;;;;19.95;40.16;100429.66;108861;1278;19416;-86
2021/12/28 02:43:16;;;;;;;;;30.50;28.50;;;;;19.95;39.99;100428.37;108886;1279;20615;-86
2021/12/28 02:45:44;;;;;;;;;33.67;31.00;;;;;19.94;40.24;100431.91;108868;1277;19421;-86
2021/12/28 02:48:11;;;;;;;;;34.00;29.67;;;;;19.92;40.06;100431.45;108912;1279;19635;-86
2021/12/28 02:50:49;;;;;;;;;;;;;;;;;;;;;
2021/12/28 02:53:34;;;;;;;;;29.33;28.33;;;;;19.94;39.99;100436.17;108866;1279;19520;-86
2021/12/28 02:56:00;;;;;;;;;32.00;29.67;;;;;19.93;39.91;100435.12;108858;1280;20400;-85
2021/12/28 02:58:30;;;;;;;;;33.33;29.67;;;;;19.94;39.88;100431.58;108880;1276;20876;-86
2021/12/28 03:00:58;;;;;;;;;31.67;29.00;;;;;19.93;39.89;100437.13;108926;1279;19472;-86
2021/12/28 03:03:25;;;;;;;;;30.33;27.00;;;;;19.94;39.79;100436.64;108879;1279;19626;-86
2021/12/28 03:05:59;;;;;;;;;36.33;29.33;;;;;19.94;39.70;100436.47;108916;1279;21940;-85
2021/12/28 03:08:26;;;;;;;;;29.50;26.50;;;;;19.93;39.94;100434.06;108894;1279;19369;-86
2021/12/28 03:10:53;;;;;;;;;33.00;27.33;;;;;19.92;39.84;100426.83;108873;1277;19909;-86
2021/12/28 03:13:20;;;;;;;;;35.00;30.00;;;;;19.91;39.76;100417.76;108915;1276;20212;-86
2021/12/28 03:15:46;;;;;;;;;32.00;28.00;;;;;19.91;39.66;100416.73;108885;1277;20006;-86
2021/12/28 03:18:16;;;;;;;;;30.67;27.33;;;;;19.91;39.74;100418.13;108867;1279;19692;-86
2021/12/28 03:20:43;;;;;;;;;33.50;26.50;;;;;19.92;39.74;100421.53;108898;1278;20536;-86
2021/12/28 03:23:13;;;;;;;;;34.00;29.00;;;;;19.91;39.58;100421.80;108860;1277;22011;-86
2021/12/28 03:25:41;;;;;;;;;29.33;26.67;;;;;19.90;39.67;100419.70;108853;1277;21312;-86
2021/12/28 03:28:08;;;;;;;;;34.00;29.00;;;;;19.91;39.67;100418.73;108956;1278;20958;-86
2021/12/28 03:30:38;;;;;;;;;33.00;26.33;;;;;19.92;39.43;100420.46;108859;1279;19676;-86
2021/12/28 03:33:06;;;;;;;;;30.33;27.67;;;;;19.90;39.63;100418.52;108870;1277;19966;-86
2021/12/28 03:35:33;;;;;;;;;28.00;26.67;;;;;19.90;39.52;100415.41;108825;1279;20437;-87
2021/12/28 03:38:01;;;;;;;;;32.00;27.00;;;;;19.90;39.48;100415.04;108955;1279;19359;-86
2021/12/28 03:40:30;;;;;;;;;28.00;25.67;;;;;19.86;39.54;100403.13;108863;1278;22717;-85
2021/12/28 03:42:57;;;;;;;;;30.00;29.33;;;;;19.90;39.57;100408.84;108880;1279;22233;-87
2021/12/28 03:45:25;;;;;;;;;31.67;27.00;;;;;19.90;39.59;100408.98;108847;1279;20754;-87
2021/12/28 03:47:55;;;;;;;;;29.67;25.67;;;;;19.89;39.50;100409.58;108904;1279;20427;-86
2021/12/28 03:50:25;;;;;;;;;29.33;23.67;;;;;19.90;39.46;100401.77;108926;1277;20479;-86
2021/12/28 03:52:56;;;;;;;;;30.00;27.33;;;;;19.88;39.41;100394.66;108917;1277;19382;-86
2021/12/28 03:55:26;;;;;;;;;34.00;30.33;;;;;19.88;39.41;100393.50;108904;1276;19880;-87
2021/12/28 03:57:52;;;;;;;;;31.00;27.00;;;;;19.88;39.41;100391.00;108885;1276;20120;-87
2021/12/28 04:00:26;;;;;;;;;27.33;26.00;;;;;19.87;39.31;100388.77;108881;1277;20314;-87
2021/12/28 04:02:53;;;;;;;;;33.33;29.00;;;;;19.84;39.35;100381.52;108915;1278;20471;-87
2021/12/28 04:05:20;;;;;;;;;26.00;25.67;;;;;19.86;39.22;100386.09;108890;1277;20895;-86
2021/12/28 04:07:47;;;;;;;;;30.67;26.67;;;;;19.87;39.35;100378.98;108855;1277;22205;-87
2021/12/28 04:10:29;;;;;;;;;28.33;25.00;;;;;19.88;39.13;100381.77;108853;1277;19727;-85
2021/12/28 04:12:55;;;;;;;;;31.33;29.33;;;;;19.89;39.08;100384.90;108909;1276;20778;-86
2021/12/28 04:15:23;;;;;;;;;32.00;25.67;;;;;19.90;39.08;100386.55;108940;1278;19693;-86
2021/12/28 04:17:51;;;;;;;;;31.00;26.00;;;;;19.91;39.10;100382.26;108931;1277;19904;-85
2021/12/28 04:20:19;;;;;;;;;27.33;24.33;;;;;19.91;38.91;100381.71;108923;1277;21880;-85
2021/12/28 04:22:45;;;;;;;;;30.00;28.00;;;;;19.92;39.11;100377.30;108876;1277;22083;-85
2021/12/28 04:25:14;;;;;;;;;30.00;24.00;;;;;19.92;39.02;100372.86;108879;1277;24307;-85
2021/12/28 04:27:42;;;;;;;;;28.33;26.00;;;;;19.92;39.12;100374.06;108888;1276;20587;-86
2021/12/28 04:30:08;;;;;;;;;30.00;27.00;;;;;19.90;39.10;100380.14;108893;1276;19530;-86
2021/12/28 04:32:36;;;;;;;;;32.67;29.00;;;;;19.89;38.99;100374.31;108922;1278;20952;-85
2021/12/28 04:35:06;;;;;;;;;29.00;25.00;;;;;19.88;38.90;100371.90;108901;1277;22499;-86
2021/12/28 04:37:32;;;;;;;;;28.33;27.00;;;;;19.87;39.05;100369.80;108890;1277;22060;-86
2021/12/28 04:39:59;;;;;;;;;29.33;26.00;;;;;19.88;38.86;100365.08;108898;1277;19770;-85
2021/12/28 04:42:29;;;;;;;;;28.67;26.33;;;;;19.87;38.79;100357.30;108904;1277;20350;-86
2021/12/28 04:44:59;;;;;;;;;27.33;24.00;;;;;19.88;38.65;100357.56;108939;1277;19711;-85
2021/12/28 04:47:26;;;;;;;;;29.50;26.00;;;;;19.89;38.80;100354.94;108879;1277;20932;-86
2021/12/28 04:49:52;;;;;;;;;34.00;26.50;;;;;19.90;38.74;100357.04;108877;1277;23789;-86
2021/12/28 04:52:19;;;;;;;;;33.00;26.00;;;;;19.89;38.53;100356.16;108921;1276;19535;-85
2021/12/28 04:54:45;;;;;;;;;31.00;24.50;;;;;19.90;38.60;100355.41;108916;1277;19321;-86
2021/12/28 04:57:12;;;;;;;;;31.33;29.00;;;;;19.90;38.46;100349.89;108830;1278;20967;-86
2021/12/28 04:59:40;;;;;;;;;28.00;25.50;;;;;19.89;38.47;100337.50;108872;1276;19508;-86
2021/12/28 05:02:07;;;;;;;;;26.33;26.00;;;;;19.90;38.53;100331.19;108878;1277;19785;-86
2021/12/28 05:04:35;;;;;;;;;29.00;25.00;;;;;19.90;38.51;100332.48;108892;1277;21045;-86
2021/12/28 05:07:01;;;;;;;;;29.00;26.00;;;;;19.89;38.58;100340.21;108925;1276;22339;-86
2021/12/28 05:09:31;;;;;;;;;29.33;25.33;;;;;19.89;38.55;100340.80;108885;1277;19994;-86
2021/12/28 05:11:57;;;;;;;;;26.00;26.00;;;;;19.88;38.40;100342.08;108930;1278;22905;-86
2021/12/28 05:14:25;;;;;;;;;32.33;26.67;;;;;19.87;38.41;100336.47;108900;1276;19383;-86
2021/12/28 05:16:51;;;;;;;;;25.67;23.00;;;;;19.86;38.45;100328.88;108869;1277;19591;-86
2021/12/28 05:19:21;;;;;;;;;25.67;25.00;;;;;19.84;38.42;100329.23;108925;1277;20384;-87
2021/12/28 05:21:47;;;;;;;;;29.00;25.00;;;;;19.85;38.36;100328.23;108860;1276;19173;-86
2021/12/28 05:24:14;;;;;;;;;29.67;25.67;;;;;19.84;38.36;100336.14;108847;1277;19690;-86
2021/12/28 05:26:41;;;;;;;;;29.67;27.00;;;;;19.84;38.24;100348.14;108905;1277;20952;-86
2021/12/28 05:29:08;;;;;;;;;29.00;25.00;;;;;19.85;38.32;100348.95;108903;1276;19717;-86
2021/12/28 05:31:33;;;;;;;;;30.00;27.50;;;;;19.84;38.22;100354.76;108874;1277;19523;-86
2021/12/28 05:34:07;;;;;;;;;25.67;25.00;;;;;19.84;38.32;100347.42;108915;1276;20626;-86
2021/12/28 05:36:33;;;;;;;;;23.00;22.33;;;;;19.83;38.33;100334.45;108899;1276;19402;-87
2021/12/28 05:39:03;;;;;;;;;34.33;26.33;;;;;19.81;38.25;100326.89;108918;1277;20297;-86
2021/12/28 05:41:30;;;;;;;;;31.67;26.00;;;;;19.80;38.20;100321.62;108952;1277;20588;-86
2021/12/28 05:43:58;;;;;;;;;28.00;26.33;;;;;19.81;38.31;100320.90;108962;1277;20352;-87
2021/12/28 05:46:25;;;;;;;;;28.00;25.00;;;;;19.82;38.07;100317.33;108886;1278;22055;-86
2021/12/28 05:48:53;;;;;;;;;25.00;23.00;;;;;19.83;38.12;100318.00;108827;1276;20989;-86
2021/12/28 05:51:28;;;;;;;;;32.33;26.33;;;;;19.83;37.97;100315.28;108886;1277;19316;-87
2021/12/28 05:53:55;;;;;;;;;28.00;25.50;;;;;19.83;38.07;100314.48;108961;1277;19697;-86
2021/12/28 05:56:22;;;;;;;;;25.50;24.00;;;;;19.82;37.98;100307.36;108853;1277;20937;-86
2021/12/28 05:58:52;;;;;;;;;29.67;27.67;;;;;19.83;37.87;100310.34;108912;1277;19455;-87
2021/12/28 06:01:20;;;;;;;;;27.67;25.00;;;;;19.81;37.95;100308.43;108966;1277;19795;-86
2021/12/28 06:03:47;;;;;;;;;29.67;26.00;;;;;19.80;37.98;100306.27;108865;1277;20328;-86
2021/12/28 06:06:18;;;;;;;;;32.50;29.00;;;;;19.82;38.00;100311.55;108936;1277;19258;-87
2021/12/28 06:09:00;;;;;;;;;23.33;22.00;;;;;19.82;37.86;100314.30;108921;1276;19711;-87
2021/12/28 06:11:28;;;;;;;;;31.00;24.67;;;;;19.82;37.87;100314.48;108917;1277;22124;-87
2021/12/28 06:13:55;;;;;;;;;29.00;26.67;;;;;19.81;37.79;100310.95;108899;1276;22070;-87
2021/12/28 06:16:23;;;;;;;;;30.00;27.00;;;;;19.81;37.81;100308.05;108886;1276;19802;-88
2021/12/28 06:18:51;;;;;;;;;29.33;26.00;;;;;19.80;37.69;100300.51;108913;1277;20863;-88
2021/12/28 06:21:22;;;;;;;;;29.00;26.00;;;;;19.79;37.69;100292.14;108891;1277;20016;-87
2021/12/28 06:23:50;;;;;;;;;29.00;25.00;;;;;19.80;37.77;100285.75;108963;1277;19829;-87
2021/12/28 06:26:20;;;;;;;;;30.67;26.00;;;;;19.80;37.89;100286.05;108925;1277;20589;-87
2021/12/28 06:28:50;;;;;;;;;26.00;24.00;;;;;19.77;37.69;100276.56;108839;1277;19821;-86
2021/12/28 06:31:17;;;;;;;;;28.33;25.00;;;;;19.76;37.75;100272.77;108870;1277;19687;-87
2021/12/28 06:33:43;;;;;;;;;32.33;25.33;;;;;19.76;37.65;100271.06;108875;1277;21198;-86
2021/12/28 06:36:13;;;;;;;;;28.33;24.33;;;;;19.77;37.88;100272.28;108881;1276;19311;-86
2021/12/28 06:38:40;;;;;;;;;25.00;25.00;;;;;19.76;37.71;100278.05;108861;1277;20696;-87
2021/12/28 06:41:07;;;;;;;;;25.50;23.00;;;;;19.77;37.83;100283.48;108902;1277;20338;-86
2021/12/28 06:43:36;;;;;;;;;31.33;28.33;;;;;19.76;38.09;100291.73;108939;1277;19319;-85
2021/12/28 06:46:02;;;;;;;;;29.00;25.00;;;;;19.78;38.08;100293.52;108904;1276;19597;-85
2021/12/28 06:48:30;;;;;;;;;32.00;25.67;;;;;19.79;38.07;100290.92;108885;1277;20582;-83
2021/12/28 06:50:57;;;;;;;;;27.00;23.00;;;;;19.79;37.74;100291.92;108921;1276;21596;-84
2021/12/28 06:53:28;;;;;;;;;32.00;27.67;;;;;19.82;37.75;100289.94;109063;1277;21995;-85
2021/12/28 06:55:55;;;;;;;;;26.00;24.33;;;;;19.89;38.08;100288.37;109051;1276;20801;-86
2021/12/28 06:58:23;;;;;;;;;29.50;28.50;;;;;19.94;37.87;100289.96;108928;1277;19482;-85
2021/12/28 07:00:49;;;;;;;;;24.00;22.33;;;;;19.96;38.24;100289.70;108990;1278;19631;-85
2021/12/28 07:03:15;;;;;;;;;27.00;23.00;;;;;19.98;38.30;100289.35;108950;1277;20436;-87
2021/12/28 07:05:42;;;;;;;;;35.67;26.00;;;;;20.02;38.56;100287.98;108974;1277;19461;-86
2021/12/28 07:08:12;;;;;;;;;24.00;21.67;;;;;20.05;39.05;100293.10;108970;1277;19615;-86
2021/12/28 07:10:39;;;;;;;;;29.33;24.67;;;;;20.06;38.67;100288.16;109008;1277;20821;-85
2021/12/28 07:13:06;;;;;;;;;28.00;25.50;;;;;20.10;38.81;100287.52;108985;1277;19687;-86
2021/12/28 07:15:33;;;;;;;;;28.00;25.50;;;;;20.13;38.98;100287.05;108965;1276;19648;-87
2021/12/28 07:18:00;;;;;;;;;26.33;24.00;;;;;20.13;39.05;100289.23;108876;1276;23411;-86
2021/12/28 07:20:26;;;;;;;;;26.00;22.33;;;;;20.14;39.25;100278.53;108921;1275;22617;-85
2021/12/28 07:22:55;;;;;;;;;25.67;23.67;;;;;20.15;39.51;100270.40;109019;1277;20158;-86
2021/12/28 07:25:25;;;;;;;;;28.67;26.00;;;;;20.15;39.81;100272.73;108931;1276;20618;-85
2021/12/28 07:27:51;;;;;;;;;29.00;22.00;;;;;20.18;39.44;100278.73;108968;1278;19849;-86
2021/12/28 07:30:21;;;;;;;;;28.00;23.00;;;;;20.24;39.61;100273.10;108918;1277;19854;-86
2021/12/28 07:32:48;;;;;;;;;27.00;25.00;;;;;20.29;39.79;100267.85;108998;1277;20448;-85
2021/12/28 07:35:14;;;;;;;;;26.67;25.00;;;;;20.30;40.19;100264.98;109068;1277;19931;-87
2021/12/28 07:37:41;;;;;;;;;25.67;23.00;;;;;20.27;40.44;100253.20;109054;1277;19662;-86
2021/12/28 07:40:11;;;;;;;;;26.00;23.00;;;;;20.28;40.40;100253.78;109402;1277;21779;-89
2021/12/28 07:42:39;;;;;;;;;25.67;24.00;;;;;20.29;40.46;100253.67;109538;1277;21781;-87
2021/12/28 07:45:05;;;;;;;;;24.00;22.67;;;;;20.30;40.52;100253.94;109531;1277;19613;-87
2021/12/28 07:47:32;;;;;;;;;24.33;19.67;;;;;20.34;40.47;100251.64;109079;1277;20370;-88
2021/12/28 07:49:59;;;;;;;;;25.33;21.33;;;;;20.37;40.56;100243.08;109094;1276;21682;-88
2021/12/28 07:52:26;;;;;;;;;36.67;31.33;;;;;20.31;40.72;100249.48;109075;1276;19560;-88
2021/12/28 07:54:52;;;;;;;;;25.00;23.00;;;;;19.85;39.18;100243.70;109089;1276;20363;-86
2021/12/28 07:57:18;;;;;;;;;37.00;28.00;;;;;19.72;38.49;100235.44;108996;1276;19628;-85
2021/12/28 07:59:44;;;;;;;;;29.50;28.00;;;;;19.86;37.30;100228.92;109011;1277;19801;-86
2021/12/28 08:02:14;;;;;;;;;26.00;25.33;;;;;20.01;37.74;100227.85;109184;1276;20926;-89
2021/12/28 08:04:40;;;;;;;;;29.00;26.00;;;;;20.13;37.92;100232.77;109220;1276;22812;-87
2021/12/28 08:07:10;;;;;;;;;28.67;25.67;;;;;20.21;38.13;100240.65;109277;1277;19723;-90
2021/12/28 08:09:36;;;;;;;;;29.67;25.67;;;;;20.21;38.28;100228.09;109332;1277;21834;-88
2021/12/28 08:12:04;;;;;;;;;26.00;23.00;;;;;20.24;39.14;100234.54;109321;1277;19650;-89
2021/12/28 08:14:38;;;;;;;;;27.00;25.00;;;;;20.25;39.34;100239.95;109270;1277;22502;-88
2021/12/28 08:17:14;;;;;;;;;30.00;25.00;;;;;20.28;39.47;100239.48;109123;1277;21130;-88
2021/12/28 08:19:40;;;;;;;;;28.50;25.00;;;;;20.27;39.45;100233.77;104992;1278;5452915;-89
2021/12/28 08:22:14;;;;;;;;;26.67;24.00;;;;;20.27;39.31;100238.17;109137;1277;19925;-87
2021/12/28 08:24:39;;;;;;;;;29.00;24.50;;;;;20.27;39.29;100229.63;109048;1277;22051;-88
2021/12/28 08:27:06;;;;;;;;;30.67;26.67;;;;;20.28;39.15;100227.65;109140;1277;19473;-87
2021/12/28 08:29:56;;;;;;;;;26.67;24.67;;;;;20.28;39.33;100217.52;109191;1277;19656;-85
2021/12/28 08:32:22;;;;;;;;;23.50;23.00;;;;;20.28;39.40;100215.92;109161;1277;21297;-85
2021/12/28 08:34:50;;;;;;;;;24.00;23.67;;;;;20.24;39.57;100216.53;109115;1277;19538;-87
2021/12/28 08:37:18;;;;;;;;;23.67;22.33;;;;;20.30;39.55;100217.71;109023;1277;19617;-83
2021/12/28 08:39:44;;;;;;;;;23.50;23.50;;;;;20.30;39.43;100216.75;109078;1277;22270;-87
2021/12/28 08:42:12;;;;;;;;;26.00;23.67;;;;;20.27;40.43;100220.65;108996;1277;19455;-92
2021/12/28 08:44:55;;;;;;;;;28.50;24.00;;;;;20.31;40.51;100213.47;109116;1276;19902;-78
2021/12/28 08:47:26;;;;;;;;;27.00;25.00;;;;;20.42;40.61;100216.27;109058;1277;21382;-79
2021/12/28 08:49:51;;;;;;;;;21.67;19.67;;;;;20.51;40.74;100203.44;109062;1278;19508;-79
2021/12/28 08:52:17;;;;;;;;;27.50;23.00;;;;;20.57;40.63;100200.38;109053;1277;20074;-79
2021/12/28 08:54:43;;;;;;;;;26.50;22.00;;;;;20.66;40.71;100197.64;109037;1276;20685;-78
2021/12/28 08:57:09;;;;;;;;;26.00;22.00;;;;;20.73;41.12;100189.99;109045;1275;20321;-77
2021/12/28 08:59:35;;;;;;;;;26.00;23.00;;;;;20.78;41.56;100190.48;108988;1276;20948;-78
2021/12/28 09:02:01;;;;;;;;;26.50;23.00;;;;;20.83;42.15;100187.13;109048;1276;20740;-77
2021/12/28 09:04:27;;;;;;;;;26.00;21.00;;;;;20.91;41.95;100193.02;109022;1277;21227;-78
2021/12/28 09:06:53;;;;;;;;;25.67;23.00;;;;;20.94;42.13;100193.73;109012;1276;22352;-76
2021/12/28 09:09:18;;;;;;;;;27.50;24.00;;;;;20.97;41.90;100191.38;109064;1276;20214;-76
2021/12/28 09:11:44;;;;;;;;;23.50;21.50;;;;;20.97;41.93;100186.00;109058;1276;19143;-79
2021/12/28 09:14:10;;;;;;;;;21.00;20.00;;;;;20.95;41.79;100189.44;109050;1278;21043;-77
2021/12/28 09:16:36;;;;;;;;;27.50;24.50;;;;;20.99;41.56;100185.91;109037;1277;21635;-78
2021/12/28 09:19:02;;;;;;;;;27.00;23.00;;;;;20.95;41.33;100178.91;109038;1277;19179;-76
2021/12/28 09:21:28;;;;;;;;;33.50;21.00;;;;;20.90;41.17;100169.20;108973;1277;19542;-76
2021/12/28 09:23:54;;;;;;;;;28.00;25.00;;;;;20.91;41.02;100170.17;109036;1278;23729;-77
2021/12/28 09:26:19;;;;;;;;;25.50;22.50;;;;;20.91;40.92;100168.92;109063;1277;21238;-77
2021/12/28 09:28:45;;;;;;;;;27.50;27.00;;;;;20.91;40.67;100165.27;109056;1277;19481;-77
2021/12/28 09:31:11;;;;;;;;;26.00;24.00;;;;;20.92;40.59;100157.88;109037;1277;20282;-77
2021/12/28 09:33:37;;;;;;;;;33.50;23.00;;;;;20.98;40.13;100159.69;108999;1277;22332;-77
2021/12/28 09:36:05;;;;;;;;;28.00;25.50;;;;;20.99;40.15;100168.98;109048;1276;19460;-77
2021/12/28 09:38:31;;;;;;;;;23.00;21.00;;;;;21.05;40.02;100159.66;109013;1276;21172;-76
2021/12/28 09:40:57;;;;;;;;;25.00;21.00;;;;;21.05;39.95;100155.17;109070;1278;19161;-76
2021/12/28 09:43:22;;;;;;;;;24.00;23.00;;;;;21.05;39.84;100149.69;109119;1276;19575;-77
2021/12/28 09:45:48;;;;;;;;;25.00;24.00;;;;;21.06;39.62;100147.36;109092;1277;23388;-78
2021/12/28 09:48:14;;;;;;;;;27.00;23.50;;;;;21.10;39.25;100147.05;109026;1276;22684;-77
2021/12/28 09:50:41;;;;;;;;;47.00;37.00;;;;;21.12;39.11;100143.45;109093;1277;19574;-78
2021/12/28 09:53:06;;;;;;;;;106.00;79.33;;;;;21.10;38.92;100136.61;109025;1277;21968;-76
2021/12/28 09:55:32;;;;;;;;;117.00;88.00;;;;;21.06;38.53;100125.94;109056;1277;19823;-76
2021/12/28 09:57:58;;;;;;;;;107.00;87.33;;;;;21.10;38.50;100128.77;109026;1277;22890;-75
2021/12/28 10:00:24;;;;;;;;;123.50;91.00;;;;;21.14;38.46;100120.21;108994;1277;20930;-75
2021/12/28 10:02:50;;;;;;;;;160.67;119.33;;;;;21.14;38.14;100113.74;108992;1277;23408;-75
2021/12/28 10:05:17;;;;;;;;;134.00;106.00;;;;;21.17;37.59;100109.48;108974;1276;19728;-76
2021/12/28 10:07:43;;;;;;;;;137.50;103.75;;;;;21.18;37.47;100113.34;109038;1277;23881;-75
2021/12/28 10:10:09;;;;;;;;;136.67;105.00;;;;;21.22;37.23;100110.36;109056;1278;20729;-74
2021/12/28 10:12:35;;;;;;;;;131.33;101.67;;;;;21.20;36.76;100103.67;109014;1276;22091;-76
2021/12/28 10:15:00;;;;;;;;;128.67;104.67;;;;;21.18;36.97;100098.45;109053;1277;20103;-75
2021/12/28 10:17:26;;;;;;;;;125.00;95.67;;;;;21.21;37.18;100102.23;109049;1277;22382;-77
2021/12/28 10:19:52;;;;;;;;;112.33;85.33;;;;;21.23;37.54;100112.14;109046;1276;23366;-79
2021/12/28 10:22:18;;;;;;;;;104.33;77.33;;;;;21.29;37.48;100106.75;109017;1278;23208;-79
2021/12/28 10:24:44;;;;;;;;;100.00;78.00;;;;;21.32;37.58;100106.92;109055;1278;19583;-80
2021/12/28 10:27:10;;;;;;;;;97.67;71.00;;;;;21.33;37.28;100119.64;109059;1277;22423;-78
2021/12/28 10:29:36;;;;;;;;;91.33;67.33;;;;;21.20;37.17;100113.02;109038;1277;25423;-79
2021/12/28 10:32:01;;;;;;;;;86.67;61.67;;;;;21.02;36.10;100120.10;109047;1277;19342;-77
2021/12/28 10:34:27;;;;;;;;;85.00;59.00;;;;;20.89;34.69;100119.21;109056;1277;19651;-76
2021/12/28 10:36:53;;;;;;;;;75.00;57.00;;;;;20.60;33.96;100121.29;109002;1277;20256;-78
2021/12/28 10:39:19;;;;;;;;;70.67;57.00;;;;;20.19;33.48;100108.50;109049;1277;20687;-73
2021/12/28 10:41:45;;;;;;;;;72.33;56.00;;;;;20.24;34.32;100093.36;108984;1275;19401;-74
2021/12/28 10:44:11;;;;;;;;;78.33;56.67;;;;;20.53;34.44;100089.37;109053;1277;20257;-72
2021/12/28 10:46:36;;;;;;;;;73.33;56.67;;;;;20.80;35.03;100079.93;109062;1276;19244;-76
2021/12/28 10:49:04;;;;;;;;;75.00;58.00;;;;;20.98;35.45;100085.80;109047;1277;19482;-72
2021/12/28 10:51:31;;;;;;;;;72.67;57.33;;;;;21.10;35.93;100080.27;109083;1276;23268;-72
2021/12/28 10:54:06;;;;;;;;;72.67;55.33;;;;;21.17;36.36;100079.54;109030;1278;20289;-72
2021/12/28 10:56:32;;;;;;;;;73.00;55.67;;;;;21.28;36.85;100081.62;109067;1277;19626;-73
2021/12/28 10:58:57;;;;;;;;;71.67;55.00;;;;;21.32;37.12;100073.96;109046;1277;20520;-73
2021/12/28 11:01:23;;;;;;;;;67.50;52.50;;;;;21.37;37.31;100067.75;109052;1278;19145;-72
2021/12/28 11:03:49;;;;;;;;;73.00;53.00;;;;;21.39;37.46;100062.05;108986;1276;23066;-73
2021/12/28 11:06:15;;;;;;;;;68.67;51.00;;;;;21.43;37.57;100063.90;109089;1277;22089;-73
2021/12/28 11:08:43;;;;;;;;;65.00;51.67;;;;;21.47;37.75;100066.10;109181;1277;20091;-73